Time;durP1;ratioP1;P1;durP2;ratioP2;P2;SDS_P1;SDS_P2;PMS_P1;PMS_P2;Temp;Humidity;BMP_temperature;BMP_pressure;BME280_temperature;BME280_humidity;BME280_pressure;Samples;Min_cycle;Max_cycle;Signal;HPM_P1;HPM_P2
2021/05/24 00:00:42;;;;;;;;;;;;;;;18.45;52.29;95202.59;5022495;28;19928;-79
2021/05/24 00:03:07;;;;;;;;;;;;;;;18.46;52.14;95204.16;5021012;28;19921;-79
2021/05/24 00:05:33;;;;;;;;;;;;;;;18.48;52.01;95209.94;5025152;28;20004;-79
2021/05/24 00:07:59;;;;;;;;;;;;;;;18.48;51.86;95209.94;5021295;28;19925;-79
2021/05/24 00:10:25;;;;;;;;;;;;;;;18.49;51.86;95208.88;5020675;28;19975;-80
2021/05/24 00:12:51;;;;;;;;;;;;;;;18.47;51.95;95210.22;5045597;22;19929;-79
2021/05/24 00:15:17;;;;;;;;;;;;;;;18.48;52.56;95206.53;5027811;22;19978;-78
2021/05/24 00:17:43;;;;;;;;;;;;;;;18.52;52.78;95218.88;5065018;23;19917;-78
2021/05/24 00:20:08;;;;;;;;;;;;;;;18.49;53.06;95214.16;5016629;28;19925;-79
2021/05/24 00:22:34;;;;;;;;;;;;;;;18.51;53.50;95219.94;5006068;28;19918;-79
2021/05/24 00:24:59;;;;;;;;;;;;;;;18.30;53.77;95231.63;4993273;28;19922;-79
2021/05/24 00:30:00;;;;;;;;;;;;;;;17.54;54.77;95247.56;4660595;26;19930;-79
2021/05/24 00:32:25;;;;;;;;;;;;;;;17.49;54.72;95253.63;4995287;28;20384;-79
2021/05/24 00:34:50;;;;;;;;;;;;;;;17.58;54.79;95246.00;4977775;28;19929;-79
2021/05/24 00:37:16;;;;;;;;;;;;;;;17.66;54.71;95248.06;4995279;28;19922;-79
2021/05/24 00:39:41;;;;;;;;;;;;;;;17.73;54.36;95248.59;4961805;28;19929;-79
2021/05/24 00:42:06;;;;;;;;;;;;;;;17.81;54.08;95261.25;4977357;28;19932;-79
2021/05/24 00:44:32;;;;;;;;;;;;;;;17.86;53.83;95263.84;4961962;28;19922;-79
2021/05/24 00:46:57;;;;;;;;;;;;;;;17.83;54.32;95274.91;4995137;28;19932;-79
2021/05/24 00:49:25;;;;;;;;;;;;;;;17.76;54.18;95276.25;4959694;28;19928;-79
2021/05/24 00:51:53;;;;;;;;;;;;;;;17.81;54.07;95271.75;5024015;22;19929;-78
2021/05/24 00:54:18;;;;;;;;;;;;;;;17.85;53.63;95272.78;5022445;28;19944;-80
2021/05/24 00:56:43;;;;;;;;;;;;;;;17.88;53.26;95272.25;5045958;22;20350;-79
2021/05/24 00:59:08;;;;;;;;;;;;;;;17.89;52.45;95273.84;5045112;28;20007;-80
2021/05/24 01:01:34;;;;;;;;;;;;;;;17.88;52.06;95277.53;5028294;28;19921;-79
2021/05/24 01:04:00;;;;;;;;;;;;;;;17.91;51.80;95276.22;5043289;28;20023;-80
2021/05/24 01:06:25;;;;;;;;;;;;;;;17.98;51.37;95282.00;5011388;28;19983;-79
2021/05/24 01:08:51;;;;;;;;;;;;;;;18.02;51.28;95282.25;5043567;28;19925;-80
2021/05/24 01:11:16;;;;;;;;;;;;;;;18.07;51.15;95283.03;5046314;28;20320;-80
2021/05/24 01:13:41;;;;;;;;;;;;;;;18.13;50.75;95291.69;5025611;28;19940;-79
2021/05/24 01:16:07;;;;;;;;;;;;;;;18.17;50.48;95284.84;5027126;28;20342;-80
2021/05/24 01:18:33;;;;;;;;;;;;;;;18.22;50.36;95287.44;5043330;28;19948;-80
2021/05/24 01:20:58;;;;;;;;;;;;;;;18.22;50.06;95285.63;5045149;28;19921;-80
2021/05/24 01:23:27;;;;;;;;;;;;;;;18.29;49.72;95293.22;5032020;28;19921;-78
2021/05/24 01:25:52;;;;;;;;;;;;;;;18.33;49.38;95296.13;5017871;28;20369;-80
2021/05/24 01:28:17;;;;;;;;;;;;;;;18.35;49.03;95300.06;5009894;28;19984;-79
2021/05/24 01:30:43;;;;;;;;;;;;;;;18.40;49.13;95309.81;5046138;28;19924;-80
2021/05/24 01:33:09;;;;;;;;;;;;;;;18.41;49.33;95301.63;5031593;22;20003;-78
2021/05/24 01:35:35;;;;;;;;;;;;;;;18.42;49.79;95310.31;5043852;23;19983;-78
2021/05/24 01:38:10;;;;;;;;;;;;;;;18.41;49.46;95317.44;5054766;28;19984;-79
2021/05/24 01:40:35;;;;;;;;;;;;;;;18.41;49.57;95325.31;5053841;28;19916;-78
2021/05/24 01:43:00;;;;;;;;;;;;;;;18.14;50.11;95323.00;5053151;28;20388;-78
2021/05/24 01:45:26;;;;;;;;;;;;;;;18.20;50.11;95326.41;5053095;28;20395;-80
2021/05/24 01:47:51;;;;;;;;;;;;;;;18.23;50.04;95331.97;5051147;28;20462;-79
2021/05/24 01:50:17;;;;;;;;;;;;;;;18.21;49.82;95333.25;5055533;28;19921;-80
2021/05/24 01:52:42;;;;;;;;;;;;;;;18.05;51.42;95334.34;5060684;28;19921;-79
2021/05/24 01:55:08;;;;;;;;;;;;;;;17.86;52.74;95332.25;5045094;28;19921;-79
2021/05/24 01:57:33;;;;;;;;;;;;;;;17.69;53.21;95350.16;5058626;28;19924;-79
2021/05/24 02:00:03;;;;;;;;;;;;;;;17.71;52.75;95348.03;5054382;28;20416;-79
2021/05/24 02:02:29;;;;;;;;;;;;;;;17.77;52.52;95352.25;5108609;22;19925;-79
2021/05/24 02:04:57;;;;;;;;;;;;;;;17.82;52.76;95351.47;5044574;28;19929;-79
2021/05/24 02:07:26;;;;;;;;;;;;;;;17.89;52.38;95341.44;5044577;28;19920;-79
2021/05/24 02:09:51;;;;;;;;;;;;;;;17.92;52.80;95343.59;5028025;28;19928;-79
2021/05/24 02:12:16;;;;;;;;;;;;;;;17.95;52.93;95349.09;5006136;28;19917;-79
2021/05/24 02:14:42;;;;;;;;;;;;;;;17.95;52.17;95346.47;5043291;28;19967;-79
2021/05/24 02:17:07;;;;;;;;;;;;;;;17.98;51.81;95356.47;5059813;22;19926;-78
2021/05/24 02:19:33;;;;;;;;;;;;;;;18.02;51.76;95348.81;5053730;23;19928;-78
2021/05/24 02:21:58;;;;;;;;;;;;;;;18.07;51.34;95353.31;5047210;28;19932;-78
2021/05/24 02:24:23;;;;;;;;;;;;;;;18.06;51.13;95359.59;5076966;22;19929;-80
2021/05/24 02:26:51;;;;;;;;;;;;;;;18.00;51.33;95362.25;5067559;23;19978;-79
2021/05/24 02:29:17;;;;;;;;;;;;;;;18.03;51.06;95368.03;5134776;22;19979;-79
2021/05/24 02:31:42;;;;;;;;;;;;;;;17.96;51.39;95377.00;5037941;28;20340;-79
2021/05/24 02:34:07;;;;;;;;;;;;;;;17.94;51.55;95371.19;5052793;22;19928;-79
2021/05/24 02:36:33;;;;;;;;;;;;;;;17.91;52.44;95381.47;5042610;28;19928;-79
2021/05/24 02:41:47;;;;;;;;;;;;;;;17.84;53.48;95381.72;5115587;22;19974;-79
2021/05/24 02:44:12;;;;;;;;;;;;;;;17.79;54.03;95379.09;5041814;28;19920;-79
2021/05/24 02:46:37;;;;;;;;;;;;;;;17.76;54.60;95390.16;5040246;28;19932;-79
2021/05/24 02:49:03;;;;;;;;;;;;;;;17.73;54.23;95385.38;5042061;28;19983;-79
2021/05/24 02:51:28;;;;;;;;;;;;;;;17.75;54.30;95398.31;5022980;28;19924;-79
2021/05/24 02:53:54;;;;;;;;;;;;;;;17.75;54.34;95404.34;5043707;28;20150;-79
2021/05/24 02:56:19;;;;;;;;;;;;;;;17.76;54.52;95411.19;5027175;28;19925;-80
2021/05/24 02:58:48;;;;;;;;;;;;;;;17.78;54.57;95421.44;5020329;28;19939;-79
2021/05/24 03:01:13;;;;;;;;;;;;;;;17.81;54.32;95426.19;5050049;28;19921;-79
2021/05/24 03:03:40;;;;;;;;;;;;;;;17.82;54.28;95425.91;5050987;28;19988;-79
2021/05/24 03:06:05;;;;;;;;;;;;;;;17.84;54.37;95429.06;5043191;28;20004;-80
2021/05/24 03:08:31;;;;;;;;;;;;;;;17.86;54.31;95426.97;5047000;28;19967;-79
2021/05/24 03:10:56;;;;;;;;;;;;;;;17.85;54.41;95420.13;5052501;28;19993;-81
2021/05/24 03:13:25;;;;;;;;;;;;;;;17.82;54.64;95420.66;5064278;28;19965;-81
2021/05/24 03:15:51;;;;;;;;;;;;;;;17.81;54.85;95413.81;5042170;28;20443;-80
2021/05/24 03:18:16;;;;;;;;;;;;;;;17.85;54.46;95424.59;5037968;28;19921;-80
2021/05/24 03:20:41;;;;;;;;;;;;;;;17.88;54.84;95426.69;5024650;28;19921;-80
2021/05/24 03:23:06;;;;;;;;;;;;;;;17.86;55.06;95431.44;5067759;22;19940;-80
2021/05/24 03:25:32;;;;;;;;;;;;;;;17.87;55.18;95438.28;5042130;28;20001;-80
2021/05/24 03:27:57;;;;;;;;;;;;;;;17.84;55.37;95439.59;5046356;28;19927;-79
2021/05/24 03:30:25;;;;;;;;;;;;;;;17.87;55.22;95444.34;5053203;28;20027;-81
2021/05/24 03:32:50;;;;;;;;;;;;;;;17.86;55.51;95444.59;5244841;22;19924;-81
2021/05/24 03:35:15;;;;;;;;;;;;;;;17.92;55.33;95439.09;5052659;28;20458;-83
2021/05/24 03:37:41;;;;;;;;;;;;;;;17.93;55.42;95445.16;5052044;28;19921;-81
2021/05/24 03:40:06;;;;;;;;;;;;;;;17.97;55.27;95449.63;5052272;28;20343;-80
2021/05/24 03:42:32;;;;;;;;;;;;;;;18.02;55.11;95455.91;5036897;23;19937;-80
2021/05/24 03:44:58;;;;;;;;;;;;;;;18.02;55.23;95453.28;5100857;22;19924;-80
2021/05/24 03:47:24;;;;;;;;;;;;;;;18.06;55.21;95454.34;5038506;28;20037;-80
2021/05/24 03:49:49;;;;;;;;;;;;;;;18.07;54.86;95453.31;5039054;28;20037;-80
2021/05/24 03:52:14;;;;;;;;;;;;;;;18.15;54.89;95466.72;5033150;22;20309;-80
2021/05/24 03:54:40;;;;;;;;;;;;;;;18.21;54.68;95468.28;5031617;28;19926;-79
2021/05/24 03:57:06;;;;;;;;;;;;;;;18.43;54.10;95478.56;5030433;28;19959;-80
2021/05/24 03:59:31;;;;;;;;;;;;;;;18.78;53.14;95480.41;5030643;28;20392;-79
2021/05/24 04:01:57;;;;;;;;;;;;;;;19.58;51.09;95485.69;5013829;28;19927;-80
2021/05/24 04:04:22;;;;;;;;;;;;;;;20.44;48.51;95479.06;5015813;28;20009;-80
2021/05/24 04:06:53;;;;;;;;;;;;;;;21.67;45.53;95478.59;4994362;28;20008;-79
2021/05/24 04:09:18;;;;;;;;;;;;;;;23.50;41.26;95486.16;5038078;28;19928;-79
2021/05/24 04:11:43;;;;;;;;;;;;;;;24.95;38.25;95495.59;5003902;28;19956;-81
2021/05/24 04:14:09;;;;;;;;;;;;;;;26.29;35.34;95495.00;5106011;22;19929;-79
2021/05/24 04:16:35;;;;;;;;;;;;;;;27.26;33.29;95507.09;5041227;28;19994;-79
2021/05/24 04:19:06;;;;;;;;;;;;;;;27.78;32.45;95513.75;5029694;28;20411;-79
2021/05/24 04:21:58;;;;;;;;;;;;;;;27.74;32.53;95512.06;5011006;28;19979;-79
2021/05/24 04:24:24;;;;;;;;;;;;;;;28.27;31.44;95518.63;5028353;28;19929;-81
2021/05/24 04:26:49;;;;;;;;;;;;;;;28.59;30.93;95527.78;5025525;28;19928;-82
2021/05/24 04:29:14;;;;;;;;;;;;;;;28.81;30.38;95526.66;5027688;28;20397;-82
2021/05/24 04:31:40;;;;;;;;;;;;;;;29.51;29.08;95527.50;5026575;28;19921;-81
2021/05/24 04:34:05;;;;;;;;;;;;;;;29.64;29.19;95526.38;5885005;22;19935;-80
2021/05/24 04:36:30;;;;;;;;;;;;;;;30.27;28.27;95521.38;5023915;28;19926;-80
2021/05/24 04:38:55;;;;;;;;;;;;;;;31.09;26.97;95528.22;5023626;28;19921;-80
2021/05/24 04:41:21;;;;;;;;;;;;;;;32.14;25.46;95529.16;5026208;28;19921;-80
2021/05/24 04:46:21;;;;;;;;;;;;;;;34.32;22.27;95548.00;5321440;22;20015;-79
2021/05/24 04:48:46;;;;;;;;;;;;;;;34.99;21.72;95552.72;5085855;22;20303;-79
2021/05/24 04:51:12;;;;;;;;;;;;;;;35.05;21.63;95553.16;5041855;28;19983;-80
2021/05/24 04:53:37;;;;;;;;;;;;;;;33.79;22.70;95558.03;5029807;28;20339;-81
2021/05/24 04:56:02;;;;;;;;;;;;;;;32.93;23.68;95547.72;5030163;28;20011;-80
2021/05/24 04:58:28;;;;;;;;;;;;;;;33.23;23.88;95555.97;5041769;28;19928;-80
2021/05/24 05:00:53;;;;;;;;;;;;;;;34.04;22.62;95549.56;5045513;28;19928;-80
2021/05/24 05:03:18;;;;;;;;;;;;;;;34.60;22.38;95566.53;5028384;28;19975;-80
2021/05/24 05:05:44;;;;;;;;;;;;;;;34.67;22.12;95571.25;5011095;28;20012;-81
2021/05/24 05:08:09;;;;;;;;;;;;;;;33.78;22.84;95575.34;5041548;22;20984;-78
2021/05/24 05:10:35;;;;;;;;;;;;;;;32.60;24.29;95577.84;5045321;28;19993;-80
2021/05/24 05:13:00;;;;;;;;;;;;;;;31.50;26.10;95586.84;5047916;28;20011;-80
2021/05/24 05:15:25;;;;;;;;;;;;;;;30.59;27.40;95583.22;5036010;28;20052;-81
2021/05/24 05:17:51;;;;;;;;;;;;;;;30.04;28.34;95598.06;5054962;28;19924;-80
2021/05/24 05:22:45;;;;;;;;;;;;;;;29.07;29.73;95612.09;5053306;22;19925;-80
2021/05/24 05:25:11;;;;;;;;;;;;;;;28.81;30.93;95606.97;5021332;28;19928;-80
2021/05/24 05:27:36;;;;;;;;;;;;;;;28.76;30.86;95610.59;5020103;28;19918;-80
2021/05/24 05:30:01;;;;;;;;;;;;;;;28.52;31.11;95611.28;5023739;28;19922;-80
2021/05/24 05:32:26;;;;;;;;;;;;;;;28.33;31.57;95602.94;5032425;22;21125;-80
2021/05/24 05:34:52;;;;;;;;;;;;;;;28.29;31.80;95602.78;5026626;22;20043;-80
2021/05/24 05:37:19;;;;;;;;;;;;;;;28.96;30.92;95617.88;5035191;28;19928;-80
2021/05/24 05:39:48;;;;;;;;;;;;;;;29.70;29.66;95616.16;5034955;28;19921;-80
2021/05/24 05:42:13;;;;;;;;;;;;;;;29.44;29.94;95618.31;5065267;22;20362;-80
2021/05/24 05:44:39;;;;;;;;;;;;;;;28.99;31.16;95627.94;5039400;28;19932;-80
2021/05/24 05:47:04;;;;;;;;;;;;;;;29.05;30.64;95627.72;5055287;28;19992;-79
2021/05/24 05:49:29;;;;;;;;;;;;;;;29.77;29.22;95627.09;5052551;28;20283;-79
2021/05/24 05:51:55;;;;;;;;;;;;;;;30.78;27.71;95621.00;5040771;28;19928;-84
2021/05/24 05:54:20;;;;;;;;;;;;;;;32.05;26.12;95630.03;5859873;22;20023;-80
2021/05/24 05:56:45;;;;;;;;;;;;;;;32.17;25.49;95621.88;5023615;28;19957;-80
2021/05/24 05:59:12;;;;;;;;;;;;;;;32.03;25.90;95633.09;5043039;22;20364;-80
2021/05/24 06:01:37;;;;;;;;;;;;;;;31.49;26.38;95639.06;5026357;28;20363;-79
2021/05/24 06:04:02;;;;;;;;;;;;;;;30.61;27.50;95637.38;5033886;28;19929;-80
2021/05/24 06:06:28;;;;;;;;;;;;;;;29.97;28.85;95630.03;5035033;28;19960;-80
2021/05/24 06:08:53;;;;;;;;;;;;;;;29.25;29.39;95638.38;5017028;28;19943;-80
2021/05/24 06:11:18;;;;;;;;;;;;;;;28.51;30.85;95619.66;5017061;28;19921;-81
2021/05/24 06:13:44;;;;;;;;;;;;;;;28.28;31.25;95619.94;5059990;23;19928;-82
2021/05/24 06:16:09;;;;;;;;;;;;;;;28.46;30.75;95611.78;5063334;28;19920;-81
2021/05/24 06:18:34;;;;;;;;;;;;;;;29.82;29.36;95626.91;5063597;28;19921;-81
2021/05/24 06:21:00;;;;;;;;;;;;;;;32.23;25.72;95629.34;5061975;28;19920;-80
2021/05/24 06:23:26;;;;;;;;;;;;;;;34.11;22.67;95630.63;5083477;22;19940;-81
2021/05/24 06:25:51;;;;;;;;;;;;;;;34.64;21.83;95625.22;5044186;28;19978;-83
2021/05/24 06:28:17;;;;;;;;;;;;;;;35.75;21.03;95611.75;5033297;28;19929;-84
2021/05/24 06:30:42;;;;;;;;;;;;;;;35.88;20.91;95615.00;5037807;28;20305;-84
2021/05/24 06:33:07;;;;;;;;;;;;;;;36.09;20.66;95625.97;5037458;28;19921;-85
2021/05/24 06:35:33;;;;;;;;;;;;;;;36.97;20.28;95625.72;5036332;28;19921;-83
2021/05/24 06:37:58;;;;;;;;;;;;;;;36.75;20.18;95623.25;5045354;28;19921;-80
2021/05/24 06:40:24;;;;;;;;;;;;;;;37.62;19.25;95626.66;5035340;28;20015;-81
2021/05/24 06:42:49;;;;;;;;;;;;;;;38.11;18.29;95615.06;5035791;28;19921;-80
2021/05/24 06:45:19;;;;;;;;;;;;;;;37.85;18.25;95618.16;5035282;28;19978;-82
2021/05/24 06:47:44;;;;;;;;;;;;;;;37.62;18.65;95620.47;5052176;28;20019;-80
2021/05/24 06:52:39;;;;;;;;;;;;;;;36.40;20.07;95615.75;5040445;22;19990;-79
2021/05/24 06:55:05;;;;;;;;;;;;;;;35.92;20.10;95616.56;5023575;28;19921;-79
2021/05/24 06:57:30;;;;;;;;;;;;;;;35.60;21.40;95615.50;5052893;22;19944;-79
2021/05/24 06:59:55;;;;;;;;;;;;;;;35.18;21.25;95611.22;5079952;22;19939;-79
2021/05/24 07:02:21;;;;;;;;;;;;;;;35.22;21.54;95608.53;5045461;28;19917;-79
2021/05/24 07:04:46;;;;;;;;;;;;;;;35.02;21.51;95603.31;5042355;28;19925;-77
2021/05/24 07:07:11;;;;;;;;;;;;;;;34.84;22.05;95596.91;5051822;28;19918;-78
2021/05/24 07:09:37;;;;;;;;;;;;;;;33.94;22.36;95605.72;5025931;28;19932;-79
2021/05/24 07:12:02;;;;;;;;;;;;;;;33.52;23.83;95600.41;5041313;28;20440;-79
2021/05/24 07:14:28;;;;;;;;;;;;;;;33.43;23.79;95606.00;5043117;28;20293;-79
2021/05/24 07:16:54;;;;;;;;;;;;;;;33.31;23.77;95606.16;5025862;28;19917;-79
2021/05/24 07:19:19;;;;;;;;;;;;;;;33.21;23.66;95600.59;5007945;28;19956;-79
2021/05/24 07:21:45;;;;;;;;;;;;;;;32.69;23.92;95597.25;5021008;28;19925;-79
2021/05/24 07:24:10;;;;;;;;;;;;;;;32.36;24.99;95594.25;5031671;23;19929;-78
2021/05/24 07:26:35;;;;;;;;;;;;;;;32.09;25.42;95602.09;5047925;22;20311;-76
2021/05/24 07:29:00;;;;;;;;;;;;;;;32.01;25.64;95605.75;5042052;28;20422;-79
2021/05/24 07:31:26;;;;;;;;;;;;;;;31.99;25.31;95602.63;5041896;28;19925;-78
2021/05/24 07:33:51;;;;;;;;;;;;;;;31.77;25.54;95611.34;5040688;28;19917;-81
2021/05/24 07:36:16;;;;;;;;;;;;;;;31.41;26.52;95610.44;5024646;28;19946;-78
2021/05/24 07:38:42;;;;;;;;;;;;;;;31.46;26.32;95612.09;5005900;28;19971;-79
2021/05/24 07:41:07;;;;;;;;;;;;;;;31.52;26.38;95616.84;5039299;28;20360;-77
2021/05/24 07:43:32;;;;;;;;;;;;;;;31.61;26.04;95617.47;5039578;28;19924;-77
2021/05/24 07:45:57;;;;;;;;;;;;;;;31.46;25.85;95610.19;5012454;28;19925;-78
2021/05/24 07:48:22;;;;;;;;;;;;;;;31.24;25.68;95616.91;5028894;28;19925;-78
2021/05/24 07:50:48;;;;;;;;;;;;;;;31.05;26.63;95614.84;5044307;28;20339;-78
2021/05/24 07:53:13;;;;;;;;;;;;;;;30.94;26.88;95619.16;5045616;28;19925;-78
2021/05/24 07:55:38;;;;;;;;;;;;;;;30.88;26.72;95604.41;5012040;28;19933;-78
2021/05/24 07:58:04;;;;;;;;;;;;;;;30.77;27.15;95597.97;5028896;28;20522;-77
2021/05/24 08:00:29;;;;;;;;;;;;;;;30.13;27.32;95606.81;5010784;28;20289;-79
2021/05/24 08:03:02;;;;;;;;;;;;;;;29.57;27.99;95610.00;5026650;28;19920;-83
2021/05/24 08:05:27;;;;;;;;;;;;;;;29.71;28.04;95607.00;5044563;28;19928;-82
2021/05/24 08:07:53;;;;;;;;;;;;;;;29.75;28.00;95613.25;5027563;28;20360;-82
2021/05/24 08:10:18;;;;;;;;;;;;;;;29.78;28.70;95611.81;5125018;22;20235;-79
2021/05/24 08:12:44;;;;;;;;;;;;;;;29.92;28.46;95614.16;5030953;28;19924;-83
2021/05/24 08:15:14;;;;;;;;;;;;;;;30.02;28.23;95609.13;5035356;28;19992;-82
2021/05/24 08:17:41;;;;;;;;;;;;;;;30.09;28.06;95600.53;5358660;22;19947;-82
2021/05/24 08:20:12;;;;;;;;;;;;;;;30.12;27.40;95607.94;5042163;28;19925;-82
2021/05/24 08:22:37;;;;;;;;;;;;;;;30.07;27.10;95614.28;5044960;28;19921;-81
2021/05/24 08:25:03;;;;;;;;;;;;;;;30.04;27.29;95596.19;5043143;28;20502;-82
2021/05/24 08:27:29;;;;;;;;;;;;;;;30.06;27.76;95602.00;5057338;28;19928;-80
2021/05/24 08:29:54;;;;;;;;;;;;;;;30.00;27.92;95602.53;5043800;28;19928;-81
2021/05/24 08:32:19;;;;;;;;;;;;;;;29.88;27.95;95600.63;5041750;28;20007;-82
2021/05/24 08:34:50;;;;;;;;;;;;;;;29.97;28.57;95597.84;5042041;28;19938;-81
2021/05/24 08:37:16;;;;;;;;;;;;;;;29.99;27.72;95588.34;5041465;28;20401;-82
2021/05/24 08:39:43;;;;;;;;;;;;;;;30.00;28.11;95586.44;5042705;28;19932;-82
2021/05/24 08:42:08;;;;;;;;;;;;;;;29.94;28.10;95577.84;5020836;28;19921;-81
2021/05/24 08:47:03;;;;;;;;;;;;;;;29.86;27.62;95566.13;5010847;28;19929;-82
2021/05/24 08:49:29;;;;;;;;;;;;;;;29.90;27.52;95566.22;4985020;28;19948;-82
2021/05/24 08:51:54;;;;;;;;;;;;;;;29.76;27.21;95561.19;5024279;23;19932;-81
2021/05/24 08:54:20;;;;;;;;;;;;;;;29.74;28.34;95568.00;5064229;22;20949;-81
2021/05/24 08:56:46;;;;;;;;;;;;;;;29.72;27.16;95565.66;5009907;28;20573;-81
2021/05/24 08:59:11;;;;;;;;;;;;;;;29.71;27.65;95568.69;5017024;28;19921;-81
2021/05/24 09:01:36;;;;;;;;;;;;;;;29.12;28.01;95564.47;5056897;22;19929;-81
2021/05/24 09:04:06;;;;;;;;;;;;;;;29.04;27.90;95562.66;5184521;22;19928;-82
2021/05/24 09:06:35;;;;;;;;;;;;;;;29.11;28.03;95551.41;5291932;22;19929;-80
2021/05/24 09:09:27;;;;;;;;;;;;;;;29.22;27.66;95541.81;5080533;22;19926;-77
2021/05/24 09:11:52;;;;;;;;;;;;;;;29.25;27.87;95536.59;5029046;28;19921;-77
2021/05/24 09:14:19;;;;;;;;;;;;;;;29.24;26.99;95540.38;4987500;28;19932;-78
2021/05/24 09:16:44;;;;;;;;;;;;;;;29.32;28.35;95541.41;5020983;28;20534;-78
2021/05/24 09:19:13;;;;;;;;;;;;;;;29.43;28.21;95541.72;5070835;22;20308;-78
2021/05/24 09:24:31;;;;;;;;;;;;;;;29.55;27.79;95539.09;5220627;22;19971;-79
2021/05/24 09:26:59;;;;;;;;;;;;;;;29.46;28.63;95546.47;5038377;28;19921;-79
2021/05/24 09:29:39;;;;;;;;;;;;;;;29.37;29.90;95543.84;5032836;28;19955;-79
2021/05/24 09:32:14;;;;;;;;;;;;;;;29.25;28.08;95544.63;5050602;28;19920;-78
2021/05/24 09:34:40;;;;;;;;;;;;;;;28.86;28.69;95534.47;5054425;28;19987;-84
2021/05/24 09:37:05;;;;;;;;;;;;;;;28.78;29.30;95532.66;5132987;22;19994;-81
2021/05/24 09:39:31;;;;;;;;;;;;;;;28.68;29.15;95523.94;5026554;28;19921;-81
2021/05/24 09:42:00;;;;;;;;;;;;;;;28.71;31.77;95522.50;5013695;22;20451;-81
2021/05/24 09:44:32;;;;;;;;;;;;;;;28.31;30.15;95523.00;5025283;28;19984;-79
2021/05/24 09:46:57;;;;;;;;;;;;;;;28.09;29.48;95524.06;5039538;28;19921;-79
2021/05/24 09:49:23;;;;;;;;;;;;;;;28.10;29.59;95527.53;5023676;28;19983;-79
2021/05/24 09:51:48;;;;;;;;;;;;;;;28.16;31.15;95526.25;5032040;28;19922;-78
2021/05/24 09:54:14;;;;;;;;;;;;;;;28.09;31.25;95517.94;5031484;28;19944;-79
2021/05/24 09:56:40;;;;;;;;;;;;;;;28.04;32.07;95518.94;5029693;28;20348;-79
2021/05/24 09:59:09;;;;;;;;;;;;;;;27.98;33.59;95517.53;5004789;28;19975;-79
2021/05/24 10:01:46;;;;;;;;;;;;;;;28.00;31.95;95518.03;5026609;28;19928;-79
2021/05/24 10:04:12;;;;;;;;;;;;;;;27.94;29.97;95511.28;4989952;28;20016;-79
2021/05/24 10:06:38;;;;;;;;;;;;;;;27.94;31.84;95510.50;5022925;28;20004;-80
2021/05/24 10:09:04;;;;;;;;;;;;;;;28.05;30.51;95506.34;5024955;28;19925;-80
2021/05/24 10:11:32;;;;;;;;;;;;;;;28.16;31.81;95504.06;5021383;28;19921;-80
2021/05/24 10:13:57;;;;;;;;;;;;;;;28.26;30.05;95506.38;5018631;28;19991;-80
2021/05/24 10:16:24;;;;;;;;;;;;;;;28.27;30.10;95502.56;5015277;28;20343;-80
2021/05/24 10:18:51;;;;;;;;;;;;;;;28.23;32.20;95504.31;5046763;22;19948;-79
2021/05/24 10:21:17;;;;;;;;;;;;;;;28.32;32.39;95503.19;5042469;28;19928;-79
2021/05/24 10:23:42;;;;;;;;;;;;;;;28.45;31.34;95498.63;5156894;22;19933;-81
2021/05/24 10:26:08;;;;;;;;;;;;;;;28.63;32.36;95497.38;5005905;28;19921;-79
2021/05/24 10:28:33;;;;;;;;;;;;;;;28.81;30.65;95494.53;5046858;22;20359;-80
2021/05/24 10:30:59;;;;;;;;;;;;;;;28.99;30.83;95501.28;5027507;28;19925;-80
2021/05/24 10:33:37;;;;;;;;;;;;;;;29.17;30.08;95491.94;5043592;28;19921;-80
2021/05/24 10:36:31;;;;;;;;;;;;;;;29.25;29.87;95480.31;5540722;22;19927;-80
2021/05/24 10:39:04;;;;;;;;;;;;;;;29.29;30.17;95483.91;5012689;28;19932;-80
2021/05/24 10:41:45;;;;;;;;;;;;;;;29.29;29.25;95489.28;5033725;28;19964;-80
2021/05/24 10:44:23;;;;;;;;;;;;;;;29.22;31.03;95489.03;5033419;28;19931;-80
2021/05/24 10:46:49;;;;;;;;;;;;;;;29.17;31.94;95485.81;5066329;22;19957;-80
2021/05/24 10:49:18;;;;;;;;;;;;;;;29.13;31.43;95480.34;5049134;28;19940;-80
2021/05/24 10:51:47;;;;;;;;;;;;;;;29.13;29.52;95480.34;5049542;28;20426;-80
2021/05/24 10:54:21;;;;;;;;;;;;;;;29.17;30.09;95470.50;5026478;28;20355;-80
2021/05/24 10:57:07;;;;;;;;;;;;;;;29.05;27.30;95478.53;5026852;28;19921;-80
2021/05/24 10:59:41;;;;;;;;;;;;;;;29.14;27.32;95475.75;5032944;28;19924;-80
2021/05/24 11:07:19;;;;;;;;;;;;;;;29.38;28.14;95474.97;5030471;22;19925;-79
2021/05/24 11:09:44;;;;;;;;;;;;;;;29.34;27.48;95474.09;4999049;28;19921;-80
2021/05/24 11:12:10;;;;;;;;;;;;;;;29.29;29.74;95478.56;5001293;28;19980;-79
2021/05/24 11:14:54;;;;;;;;;;;;;;;29.23;25.66;95463.81;5138804;22;20021;-80
2021/05/24 11:17:19;;;;;;;;;;;;;;;29.09;25.64;95466.03;5044107;28;20376;-80
2021/05/24 11:19:46;;;;;;;;;;;;;;;28.89;26.36;95473.03;5043758;28;19970;-80
2021/05/24 11:22:32;;;;;;;;;;;;;;;28.41;28.38;95465.63;5040661;28;19922;-79
2021/05/24 11:25:49;;;;;;;;;;;;;;;28.41;29.28;95465.63;5011789;28;19975;-80
2021/05/24 11:28:11;;;;;;;;;;;;;;;28.38;30.70;95460.94;5044934;28;19917;-83
2021/05/24 11:30:36;;;;;;;;;;;;;;;28.27;28.15;95459.78;5046185;28;19921;-80
2021/05/24 11:33:01;;;;;;;;;;;;;;;27.84;28.57;95454.78;5010050;28;19925;-80
2021/05/24 11:35:27;;;;;;;;;;;;;;;27.70;29.75;95457.69;5024770;28;20328;-80
2021/05/24 11:37:52;;;;;;;;;;;;;;;27.76;29.57;95451.81;5026892;28;19925;-80
2021/05/24 11:40:18;;;;;;;;;;;;;;;27.71;31.28;95448.56;5043197;28;19931;-80
2021/05/24 11:42:43;;;;;;;;;;;;;;;27.78;29.60;95440.81;5024327;28;20388;-79
2021/05/24 11:45:17;;;;;;;;;;;;;;;27.91;31.94;95437.09;5042860;28;20007;-79
2021/05/24 11:47:42;;;;;;;;;;;;;;;27.95;30.68;95432.66;5027954;28;19925;-79
2021/05/24 11:50:09;;;;;;;;;;;;;;;27.98;29.40;95441.91;5011938;28;19948;-79
2021/05/24 11:52:37;;;;;;;;;;;;;;;27.98;29.15;95432.00;5045559;28;19925;-80
2021/05/24 11:55:53;;;;;;;;;;;;;;;28.02;31.44;95438.28;5009378;28;19932;-79
2021/05/24 11:58:56;;;;;;;;;;;;;;;;;;;;;
2021/05/24 12:07:37;;;;;;;;;;;;;;;27.48;27.32;95416.75;5010820;28;20432;-85
2021/05/24 12:10:02;;;;;;;;;;;;;;;27.43;26.51;95414.28;5046552;28;20355;-86
2021/05/24 12:12:36;;;;;;;;;;;;;;;27.43;26.91;95418.84;5030855;28;19925;-86
2021/05/24 12:15:02;;;;;;;;;;;;;;;27.44;28.62;95423.09;5012052;28;19925;-85
2021/05/24 12:17:28;;;;;;;;;;;;;;;27.50;31.45;95417.25;5027095;28;19920;-82
2021/05/24 12:19:54;;;;;;;;;;;;;;;27.56;31.06;95414.38;5045518;28;19925;-83
2021/05/24 12:22:25;;;;;;;;;;;;;;;27.58;30.32;95414.84;5012339;28;19992;-81
2021/05/24 12:24:50;;;;;;;;;;;;;;;27.55;30.55;95407.47;5029834;28;19921;-82
2021/05/24 12:27:16;;;;;;;;;;;;;;;27.55;30.66;95412.81;5013160;28;19927;-81
2021/05/24 12:29:51;;;;;;;;;;;;;;;27.54;30.69;95412.03;5032477;28;19932;-86
2021/05/24 12:32:26;;;;;;;;;;;;;;;27.50;27.76;95406.56;5040574;28;19979;-86
2021/05/24 12:34:54;;;;;;;;;;;;;;;27.38;30.81;95387.78;5036821;28;19921;-75
2021/05/24 12:37:19;;;;;;;;;;;;;;;27.48;26.55;95395.41;5031905;28;19928;-76
2021/05/24 12:39:46;;;;;;;;;;;;;;;27.58;30.79;95399.59;5049732;28;19921;-82
2021/05/24 12:44:39;;;;;;;;;;;;;;;27.60;28.01;95396.59;5040830;28;20375;-85
2021/05/24 12:50:28;;;;;;;;;;;;;;;27.56;30.97;95393.00;5021232;28;20464;-86
2021/05/24 12:55:30;;;;;;;;;;;;;;;27.44;30.28;95391.03;5154346;22;19929;-84
2021/05/24 12:57:55;;;;;;;;;;;;;;;27.39;30.43;95389.34;5017500;28;19921;-85
2021/05/24 13:00:22;;;;;;;;;;;;;;;27.38;30.94;95382.44;5009690;28;19971;-83
2021/05/24 13:02:52;;;;;;;;;;;;;;;27.36;30.53;95384.66;5013866;28;19921;-86
2021/05/24 13:05:18;;;;;;;;;;;;;;;27.35;31.17;95380.44;5022792;28;19921;-86
2021/05/24 13:07:50;;;;;;;;;;;;;;;27.33;30.87;95374.59;5012413;28;19922;-85
2021/05/24 13:10:16;;;;;;;;;;;;;;;27.33;30.45;95368.47;5011831;28;20048;-86
2021/05/24 13:12:43;;;;;;;;;;;;;;;27.34;31.03;95365.50;4994096;28;20421;-86
2021/05/24 13:15:11;;;;;;;;;;;;;;;27.34;29.54;95368.19;5020962;28;20261;-86
2021/05/24 13:17:50;;;;;;;;;;;;;;;27.33;30.84;95363.91;5010930;28;19926;-86
2021/05/24 13:20:41;;;;;;;;;;;;;;;27.26;29.89;95355.66;5013805;28;19921;-86
2021/05/24 13:30:47;;;;;;;;;;;;;;;27.06;30.85;95359.09;4998151;28;19963;-85
2021/05/24 13:33:30;;;;;;;;;;;;;;;26.97;28.63;95353.75;5012101;22;19947;-86